Weather History for Perryton, TX

Change the Weather History Date:

Saturday, July 20, 2013

  Actual Average Record
Temperature  
Mean Temperature 80 °F -  
Max Temperature 92 °F 92 °F 105 °F (2006)
Min Temperature 69 °F 64 °F 57 °F (1988)
Cooling Degree Days 16    
Growing Degree Days 30 (Base 50)    
Moisture  
Dew Point 63 °F    
Average Humidity 62    
Maximum Humidity 88    
Minimum Humidity 30    
Precipitation  
Precipitation 0.00 in - - ()
Sea Level Pressure  
Sea Level Pressure 29.96 in    
Wind  
Wind Speed 12 mph (SSW)    
Max Wind Speed 24 mph    
Max Gust Speed 34 mph    
Visibility 10 miles    
Events      
Averages and records for this station are not official NWS values.
T = Trace of Precipitation, MM = Missing Value Source: NWS Daily Summary

Daily Weather History Graph

Daily Weather History Graph

Search for Another Location

Airport:

Trip Planner

Search our weather history database for the weather conditions in past years. The results will help you decide how hot, cold, wet, or windy it might be!

Date:

Astronomy

Jul. 20, 2013 Rise Set
Actual Time 6:40 AM CDT 8:57 PM CDT
Civil Twilight 6:11 AM CDT 9:27 PM CDT
Nautical Twilight 5:35 AM CDT 10:03 PM CDT
Astronomical Twilight 4:55 AM CDT 10:42 PM CDT
Moon 7:03 PM CDT (7/20) 4:22 AM CDT (7/20)
Length of Visible Light 15h 16m
Length of Day
14h 17m
Waxing Gibbous, 94% of the Moon is Illuminated
Jul 20
Waxing Gibbous
Jul 22
Full
Jul 29
Last Quarter
Aug 6
New
Aug 14
First Quarter

Hourly Weather History & Observations

Time (CDT) Temp. Heat Index Dew Point Humidity Pressure Visibility Wind Dir Wind Speed Gust Speed Precip Events Conditions
12:15 AM 78.1 °F - 61.2 °F 56% 30.02 in 10.0 mi South 11.5 mph - N/A   Mostly Cloudy
12:35 AM 77.2 °F - 61.0 °F 57% 30.02 in 10.0 mi South 11.5 mph - N/A   Scattered Clouds
12:55 AM 76.6 °F - 61.0 °F 58% 30.02 in 10.0 mi South 10.4 mph - N/A   Scattered Clouds
1:15 AM 77.0 °F - 61.2 °F 58% 30.02 in 10.0 mi South 11.5 mph - N/A   Scattered Clouds
1:35 AM 77.0 °F - 61.7 °F 59% 30.01 in 10.0 mi South 13.8 mph - N/A   Overcast
1:55 AM 77.2 °F - 62.1 °F 59% 30.01 in 10.0 mi South 11.5 mph - N/A   Overcast
2:15 AM 77.2 °F - 62.1 °F 59% 30.00 in 10.0 mi South 12.7 mph - N/A   Overcast
2:35 AM 77.0 °F - 62.1 °F 60% 30.00 in 10.0 mi SSW 12.7 mph - N/A   Overcast
2:55 AM 77.0 °F - 61.9 °F 59% 30.02 in 10.0 mi SW 12.7 mph - N/A   Overcast
3:15 AM 76.5 °F - 62.6 °F 62% 30.02 in 10.0 mi SSE 8.1 mph - N/A   Overcast
3:35 AM 75.9 °F - 62.4 °F 63% 30.02 in 10.0 mi SW 16.1 mph 25.3 mph N/A   Overcast
3:55 AM 72.3 °F - 63.3 °F 73% 30.01 in 7.0 mi SSW 13.8 mph 21.9 mph N/A   Mostly Cloudy
4:15 AM 73.4 °F - 63.7 °F 71% 30.00 in 10.0 mi South 11.5 mph 16.1 mph N/A   Mostly Cloudy
4:35 AM 72.5 °F - 64.0 °F 75% 30.00 in 10.0 mi South 9.2 mph - N/A   Clear
4:55 AM 71.8 °F - 64.6 °F 78% 30.00 in 10.0 mi SSE 8.1 mph - N/A   Mostly Cloudy
5:15 AM 71.2 °F - 65.3 °F 81% 29.99 in 10.0 mi SE 6.9 mph - N/A   Mostly Cloudy
5:35 AM 70.7 °F - 65.3 °F 83% 29.99 in 10.0 mi SE 8.1 mph - N/A   Mostly Cloudy
5:55 AM 70.0 °F - 66.2 °F 88% 29.99 in 10.0 mi SE 6.9 mph - N/A   Scattered Clouds
6:15 AM 69.8 °F - 66.2 °F 88% 29.98 in 10.0 mi South 8.1 mph - N/A   Clear
6:35 AM 70.3 °F - 65.3 °F 84% 29.97 in 10.0 mi South 10.4 mph - N/A   Clear
6:55 AM 70.7 °F - 64.8 °F 81% 29.96 in 10.0 mi South 11.5 mph - N/A   Clear
7:15 AM 70.3 °F - 64.8 °F 82% 29.96 in 10.0 mi South 11.5 mph - N/A   Clear
7:35 AM 70.7 °F - 65.3 °F 83% 29.96 in 10.0 mi South 10.4 mph - N/A   Clear
7:55 AM 71.1 °F - 65.7 °F 83% 29.96 in 10.0 mi SSW 10.4 mph - N/A   Clear
8:15 AM 72.0 °F - 66.2 °F 82% 29.96 in 10.0 mi SSW 12.7 mph - N/A   Clear
8:35 AM 73.0 °F - 66.7 °F 81% 29.97 in 10.0 mi SW 13.8 mph - N/A   Clear
8:55 AM 73.9 °F - 66.7 °F 78% 29.97 in 10.0 mi WSW 15.0 mph - N/A   Clear
9:15 AM 75.9 °F - 66.7 °F 73% 29.97 in 10.0 mi WSW 12.7 mph 18.4 mph N/A   Clear
9:35 AM 76.1 °F - 66.0 °F 71% 29.98 in 10.0 mi SW 13.8 mph 18.4 mph N/A   Clear
9:55 AM 76.5 °F - 65.5 °F 69% 29.98 in 10.0 mi WSW 13.8 mph - N/A   Clear
10:15 AM 77.4 °F - 66.2 °F 68% 29.98 in 10.0 mi WSW 13.8 mph - N/A   Scattered Clouds
10:35 AM 77.9 °F - 65.5 °F 65% 29.98 in 10.0 mi WSW 13.8 mph - N/A   Mostly Cloudy
10:55 AM 78.6 °F - 65.5 °F 64% 29.99 in 10.0 mi West 12.7 mph - N/A   Scattered Clouds
11:15 AM 78.4 °F - 65.1 °F 63% 29.99 in 10.0 mi West 10.4 mph - N/A   Clear
11:35 AM 80.1 °F 81.9 °F 64.9 °F 60% 29.99 in 10.0 mi West 6.9 mph - N/A   Scattered Clouds
11:55 AM 82.4 °F 84.2 °F 65.3 °F 56% 29.99 in 10.0 mi WSW 6.9 mph - N/A   Clear
12:15 PM 84.0 °F 85.6 °F 64.4 °F 52% 29.99 in 10.0 mi WNW 4.6 mph - N/A   Scattered Clouds
12:35 PM 85.5 °F 86.3 °F 63.3 °F 47% 29.98 in 10.0 mi WSW 4.6 mph 18.4 mph N/A   Scattered Clouds
12:55 PM 86.9 °F 87.0 °F 61.5 °F 42% 29.98 in 10.0 mi WSW 11.5 mph 16.1 mph N/A   Scattered Clouds
1:15 PM 87.8 °F 87.4 °F 60.1 °F 39% 29.98 in 10.0 mi West 12.7 mph 17.3 mph N/A   Scattered Clouds
1:35 PM 89.6 °F 89.2 °F 60.3 °F 37% 29.97 in 10.0 mi SW 6.9 mph - N/A   Scattered Clouds
1:55 PM 90.3 °F 89.6 °F 59.2 °F 35% 29.96 in 10.0 mi WNW 13.8 mph 18.4 mph N/A   Scattered Clouds
2:15 PM 90.1 °F 88.6 °F 56.7 °F 32% 29.95 in 10.0 mi West 9.2 mph - N/A   Clear
2:35 PM 90.9 °F 89.2 °F 56.1 °F 31% 29.93 in 10.0 mi West 9.2 mph - N/A   Clear
2:55 PM 91.6 °F 89.8 °F 56.3 °F 30% 29.92 in 10.0 mi West 9.2 mph - N/A   Clear
3:15 PM 92.3 °F 90.7 °F 56.5 °F 30% 29.92 in 10.0 mi West 5.8 mph - N/A   Clear
3:35 PM 90.0 °F 88.3 °F 56.3 °F 32% 29.93 in 10.0 mi WSW 5.8 mph - N/A   Mostly Cloudy
3:55 PM 85.3 °F 85.7 °F 61.7 °F 45% 29.93 in 10.0 mi South 20.7 mph 24.2 mph N/A   Overcast
4:15 PM 82.4 °F 82.6 °F 59.9 °F 46% 29.94 in 10.0 mi SSW 23.0 mph 34.5 mph N/A   Overcast
4:35 PM 84.0 °F 84.7 °F 62.6 °F 48% 29.94 in 10.0 mi South 20.7 mph - N/A   Scattered Clouds
4:55 PM 85.3 °F 85.4 °F 61.2 °F 44% 29.93 in 10.0 mi SSW 21.9 mph - N/A   Scattered Clouds
5:15 PM 83.7 °F 84.3 °F 62.2 °F 48% 29.93 in 10.0 mi South 21.9 mph - N/A   Mostly Cloudy
5:35 PM 82.8 °F 83.6 °F 62.4 °F 50% 29.93 in 10.0 mi South 20.7 mph - N/A   Scattered Clouds
5:55 PM 82.4 °F 83.7 °F 63.5 °F 53% 29.92 in 10.0 mi South 19.6 mph - N/A   Clear
6:15 PM 82.2 °F 83.7 °F 64.0 °F 54% 29.92 in 10.0 mi SSW 24.2 mph - N/A   Clear
6:35 PM 82.4 °F 83.9 °F 64.4 °F 54% 29.91 in 10.0 mi South 19.6 mph 29.9 mph N/A   Clear
6:55 PM 82.4 °F 83.9 °F 64.2 °F 54% 29.91 in 10.0 mi South 19.6 mph 24.2 mph N/A   Clear
7:15 PM 82.4 °F 83.9 °F 64.0 °F 54% 29.90 in 10.0 mi SSW 18.4 mph 24.2 mph N/A   Clear
7:35 PM 82.4 °F 83.7 °F 63.9 °F 53% 29.90 in 10.0 mi South 16.1 mph - N/A   Clear
7:55 PM 81.9 °F 82.9 °F 62.8 °F 52% 29.89 in 10.0 mi SSW 12.7 mph - N/A   Clear
8:15 PM 80.8 °F 82.0 °F 63.0 °F 54% 29.89 in 10.0 mi SSW 16.1 mph - N/A   Clear
8:35 PM 79.7 °F - 63.5 °F 58% 29.90 in 10.0 mi SSW 12.7 mph - N/A   Clear
8:55 PM 78.4 °F - 64.2 °F 62% 29.91 in 10.0 mi SSW 10.4 mph - N/A   Clear
9:15 PM 77.2 °F - 64.8 °F 65% 29.91 in 10.0 mi South 8.1 mph - N/A   Scattered Clouds
9:35 PM 76.8 °F - 65.5 °F 68% 29.92 in 10.0 mi South 9.2 mph - N/A   Scattered Clouds
9:55 PM 76.5 °F - 65.8 °F 70% 29.92 in 10.0 mi South 8.1 mph - N/A   Mostly Cloudy
10:15 PM 75.7 °F - 67.3 °F 75% 29.92 in 10.0 mi SSE 6.9 mph - N/A   Mostly Cloudy
10:35 PM 75.2 °F - 66.6 °F 74% 29.92 in 10.0 mi SSE 6.9 mph - N/A   Mostly Cloudy
10:55 PM 74.8 °F - 67.1 °F 77% 29.91 in 10.0 mi SSE 6.9 mph - N/A   Mostly Cloudy
11:15 PM 74.3 °F - 67.6 °F 80% 29.93 in 10.0 mi SSE 6.9 mph - N/A   Mostly Cloudy
11:35 PM 74.3 °F - 66.7 °F 77% 29.93 in 10.0 mi SSE 9.2 mph - N/A   Scattered Clouds
11:55 PM 74.3 °F - 66.6 °F 77% 29.94 in 10.0 mi SSE 8.1 mph - N/A   Scattered Clouds